BAW490 EGLL-LXGB
Flight info
| Callsign | BAW490 |
|---|---|
| Flight time | N/A |
| Altitude | 37000 |
| Route | GOGSI N621 SAM M195 MARUK N621 LELNA DCT NOVAN DCT DELOG DCT CRISA DCT VULPE DCT MAR N864 PIMOS |
| Aircraft | A320/M-SDE3FGHIRWY/LB1 |
Departure
| Time | 2026-05-04 16:12 |
|---|---|
| Airport | London Heathrow Airport (EGLL) |
Arrival
| Time | N/A |
|---|---|
| Airport | Gibraltar Airport (LXGB) |
| Time | Latitude | Longitude | Altitude | Speed | Heading |
|---|---|---|---|---|---|
| 2026-05-04 15:32 | 51.47462 | -0.46021 | 87 ft | 0 kts | 60° |
| 2026-05-04 15:55 | 51.47461 | -0.46024 | 85 ft | 2 kts | 60° |
| 2026-05-04 15:55 | 51.47448 | -0.46060 | 86 ft | 4 kts | 55° |
| 2026-05-04 15:55 | 51.47431 | -0.46094 | 88 ft | 4 kts | 40° |
| 2026-05-04 15:55 | 51.47411 | -0.46111 | 88 ft | 4 kts | 344° |
| 2026-05-04 15:56 | 51.47401 | -0.46104 | 87 ft | 1 kts | 325° |
| 2026-05-04 16:05 | 51.47414 | -0.46118 | 89 ft | 10 kts | 325° |
| 2026-05-04 16:05 | 51.47490 | -0.46179 | 85 ft | 13 kts | 359° |
| 2026-05-04 16:05 | 51.47518 | -0.45841 | 85 ft | 25 kts | 90° |
| 2026-05-04 16:06 | 51.47503 | -0.45552 | 86 ft | 27 kts | 91° |
| 2026-05-04 16:06 | 51.47509 | -0.44747 | 89 ft | 26 kts | 88° |
| 2026-05-04 16:07 | 51.47506 | -0.44347 | 88 ft | 28 kts | 88° |
| 2026-05-04 16:07 | 51.47454 | -0.43612 | 85 ft | 18 kts | 90° |
| 2026-05-04 16:08 | 51.47493 | -0.43430 | 86 ft | 18 kts | 15° |
| 2026-05-04 16:08 | 51.47748 | -0.43425 | 90 ft | 16 kts | 351° |
| 2026-05-04 16:09 | 51.47765 | -0.43501 | 87 ft | 0 kts | 272° |
| 2026-05-04 16:11 | 51.47765 | -0.43509 | 87 ft | 1 kts | 269° |
| 2026-05-04 16:11 | 51.47765 | -0.43558 | 86 ft | 13 kts | 270° |
| 2026-05-04 16:12 | 51.47757 | -0.46953 | 108 ft | 172 kts | 272° |
| 2026-05-04 16:12 | 51.47703 | -0.52855 | 1696 ft | 195 kts | 266° |
| 2026-05-04 16:13 | 51.47034 | -0.57505 | 2412 ft | 234 kts | 257° |
| 2026-05-04 16:13 | 51.46175 | -0.63051 | 3540 ft | 269 kts | 257° |
| 2026-05-04 16:14 | 51.45467 | -0.68942 | 5448 ft | 271 kts | 268° |
| 2026-05-04 16:14 | 51.45397 | -0.74989 | 7221 ft | 274 kts | 268° |
| 2026-05-04 16:15 | 51.43604 | -0.83452 | 9672 ft | 280 kts | 222° |
| 2026-05-04 16:16 | 51.40530 | -0.87651 | 10516 ft | 311 kts | 214° |
| 2026-05-04 16:16 | 51.34802 | -0.93744 | 12123 ft | 336 kts | 214° |